Time;durP1;ratioP1;P1;durP2;ratioP2;P2;SDS_P1;SDS_P2;PMS_P1;PMS_P2;Temp;Humidity;BMP_temperature;BMP_pressure;BME280_temperature;BME280_humidity;BME280_pressure;Samples;Min_cycle;Max_cycle;Signal;HPM_P1;HPM_P2
2021/12/12 00:00:20;;;;;;;40.55;24.60;;;4.80;79.50;;;;;;4947933;29;20047;-74
2021/12/12 00:03:00;;;;;;;39.03;24.75;;;4.80;79.50;;;;;;4948645;29;20053;-74
2021/12/12 00:05:42;;;;;;;39.13;23.40;;;4.80;79.50;;;;;;4955419;29;20082;-74
2021/12/12 00:08:09;;;;;;;37.35;23.55;;;4.80;79.50;;;;;;4951502;29;20090;-74
2021/12/12 00:10:38;;;;;;;37.13;23.20;;;4.90;79.50;;;;;;4951139;29;20070;-74
2021/12/12 00:13:09;;;;;;;35.88;22.60;;;4.90;79.60;;;;;;4948204;29;20058;-75
2021/12/12 00:15:34;;;;;;;48.30;25.02;;;4.90;79.50;;;;;;4948422;29;20028;-76
2021/12/12 00:18:00;;;;;;;36.47;24.02;;;4.90;79.50;;;;;;4946697;29;20499;-75
2021/12/12 00:20:28;;;;;;;37.58;22.90;;;4.90;79.50;;;;;;4940745;29;20046;-76
2021/12/12 00:22:59;;;;;;;41.70;23.92;;;4.90;79.50;;;;;;4945972;29;20043;-76
2021/12/12 00:25:27;;;;;;;38.45;23.15;;;4.90;79.50;;;;;;4940408;29;20539;-75
2021/12/12 00:27:53;;;;;;;40.60;23.02;;;4.90;79.50;;;;;;4950743;29;20047;-75
2021/12/12 00:30:18;;;;;;;43.92;25.20;;;4.90;79.40;;;;;;4950148;29;20058;-75
2021/12/12 00:32:44;;;;;;;39.10;22.80;;;4.90;79.40;;;;;;4953701;29;20043;-75
2021/12/12 00:35:13;;;;;;;43.75;24.52;;;4.90;79.40;;;;;;4952774;29;20043;-75
2021/12/12 00:37:39;;;;;;;38.38;23.08;;;5.00;79.50;;;;;;4941330;29;20055;-75
2021/12/12 00:40:30;;;;;;;39.22;23.05;;;5.00;79.40;;;;;;4952894;29;20517;-74
2021/12/12 00:42:58;;;;;;;43.53;22.77;;;5.00;79.50;;;;;;4942906;29;20051;-76
2021/12/12 00:45:24;;;;;;;38.53;22.13;;;5.00;79.40;;;;;;4941240;29;20064;-75
2021/12/12 00:47:51;;;;;;;42.63;22.70;;;5.00;79.40;;;;;;4941157;29;20039;-75
2021/12/12 00:50:24;;;;;;;39.35;21.80;;;5.00;79.40;;;;;;4943139;29;20154;-75
2021/12/12 00:52:51;;;;;;;41.75;23.85;;;5.00;79.40;;;;;;4951585;29;20047;-75
2021/12/12 00:55:18;;;;;;;41.38;22.92;;;5.00;79.40;;;;;;4942158;29;20039;-76
2021/12/12 00:57:50;;;;;;;34.10;20.35;;;5.00;79.30;;;;;;4939378;29;20423;-76
2021/12/12 01:00:19;;;;;;;37.78;22.35;;;5.00;79.40;;;;;;4953685;29;20135;-75
2021/12/12 01:02:48;;;;;;;41.97;22.33;;;5.00;79.40;;;;;;4949152;29;20055;-76
2021/12/12 01:05:13;;;;;;;38.92;22.58;;;5.00;79.40;;;;;;4942620;29;20042;-75
2021/12/12 01:07:44;;;;;;;35.70;22.02;;;5.00;79.40;;;;;;4945258;28;20138;-76
2021/12/12 01:10:39;;;;;;;41.53;21.52;;;5.00;79.40;;;;;;4950238;28;20052;-75
2021/12/12 01:13:07;;;;;;;38.85;22.92;;;5.10;79.50;;;;;;4942380;29;20059;-75
2021/12/12 01:15:38;;;;;;;44.90;22.73;;;5.00;79.40;;;;;;4941537;29;20050;-75
2021/12/12 01:18:16;;;;;;;38.90;22.10;;;5.00;79.40;;;;;;4947922;29;20427;-75
2021/12/12 01:20:50;;;;;;;35.95;21.25;;;5.00;79.40;;;;;;4947912;29;20047;-76
2021/12/12 01:23:39;;;;;;;33.78;20.63;;;5.10;79.50;;;;;;4951622;29;20082;-76
2021/12/12 01:26:07;;;;;;;36.20;20.60;;;5.10;79.60;;;;;;4966897;28;20043;-75
2021/12/12 01:28:36;;;;;;;36.25;20.23;;;5.10;79.50;;;;;;4943536;29;20067;-75
2021/12/12 01:31:05;;;;;;;41.38;21.70;;;5.10;79.50;;;;;;4943872;29;20047;-76
2021/12/12 01:33:35;;;;;;;42.15;21.40;;;5.10;79.50;;;;;;4944312;29;20043;-76
2021/12/12 01:36:12;;;;;;;39.03;21.17;;;5.10;79.50;;;;;;4938947;29;20067;-75
2021/12/12 01:41:17;;;;;;;36.42;19.80;;;5.10;79.50;;;;;;4944123;29;20086;-76
2021/12/12 01:43:46;;;;;;;39.97;21.15;;;5.10;79.50;;;;;;4943961;29;20467;-76
2021/12/12 01:46:20;;;;;;;41.45;22.08;;;5.10;79.60;;;;;;4950586;29;20058;-76
2021/12/12 01:48:57;;;;;;;40.97;20.50;;;5.20;79.70;;;;;;4950453;29;20051;-76
2021/12/12 01:51:24;;;;;;;34.30;21.20;;;5.20;79.70;;;;;;4949945;29;20055;-76
2021/12/12 01:53:54;;;;;;;35.80;19.42;;;5.20;79.70;;;;;;4955377;29;20051;-75
2021/12/12 01:56:29;;;;;;;37.53;21.38;;;5.20;79.80;;;;;;4938415;29;20076;-75
2021/12/12 01:59:01;;;;;;;43.38;20.80;;;5.20;79.70;;;;;;4936470;29;20059;-76
2021/12/12 02:01:35;;;;;;;39.67;20.20;;;5.20;79.70;;;;;;4950114;29;20043;-76
2021/12/12 02:04:10;;;;;;;37.13;19.63;;;5.20;79.80;;;;;;4939418;29;20131;-75
2021/12/12 02:06:37;;;;;;;37.00;20.33;;;5.20;79.80;;;;;;4948203;29;20059;-75
2021/12/12 02:09:05;;;;;;;36.03;19.65;;;5.20;79.70;;;;;;4952581;29;20852;-76
2021/12/12 02:11:33;;;;;;;31.92;18.75;;;5.20;79.80;;;;;;4942963;29;20090;-76
2021/12/12 02:14:08;;;;;;;39.30;19.27;;;5.20;79.80;;;;;;4950459;29;20115;-76
2021/12/12 02:16:36;;;;;;;36.22;18.75;;;5.20;79.90;;;;;;4948782;29;20044;-76
2021/12/12 02:19:03;;;;;;;33.47;19.52;;;5.20;79.80;;;;;;4937815;29;20051;-76
2021/12/12 02:21:38;;;;;;;35.38;19.02;;;5.30;79.90;;;;;;4937955;29;20115;-77
2021/12/12 02:37:53;;;;;;;31.15;17.35;;;5.30;79.90;;;;;;4944779;29;20051;-76
2021/12/12 02:40:32;;;;;;;34.22;17.08;;;5.30;79.90;;;;;;4941525;29;20410;-76
2021/12/12 02:42:58;;;;;;;33.33;18.58;;;5.30;80.10;;;;;;4935757;29;20055;-76
2021/12/12 02:45:28;;;;;;;30.00;16.40;;;5.30;79.90;;;;;;4940328;29;20569;-75
2021/12/12 02:47:59;;;;;;;33.72;16.65;;;5.30;80.00;;;;;;4951176;29;20435;-76
2021/12/12 02:50:32;;;;;;;32.42;17.83;;;5.30;80.10;;;;;;4947129;29;20434;-75
2021/12/12 02:53:07;;;;;;;32.00;17.00;;;5.30;80.10;;;;;;4935798;29;20087;-76
2021/12/12 02:55:37;;;;;;;29.40;16.88;;;5.30;80.10;;;;;;4936023;29;20047;-76
2021/12/12 02:58:05;;;;;;;30.77;16.75;;;5.30;80.00;;;;;;4954299;29;20047;-76
2021/12/12 03:00:35;;;;;;;28.30;17.23;;;5.40;80.10;;;;;;4944413;29;20049;-75
2021/12/12 03:03:01;;;;;;;32.55;17.48;;;5.30;80.10;;;;;;4948173;29;20074;-76
2021/12/12 03:05:30;;;;;;;33.45;17.70;;;5.30;80.10;;;;;;4941701;29;20055;-76
2021/12/12 03:07:56;;;;;;;30.95;16.75;;;5.30;80.10;;;;;;4938616;29;20062;-76
2021/12/12 03:10:29;;;;;;;33.35;17.55;;;5.40;80.20;;;;;;4950540;29;20047;-76
2021/12/12 03:12:55;;;;;;;29.45;16.70;;;5.40;80.20;;;;;;4941508;29;20085;-76
2021/12/12 03:15:27;;;;;;;29.42;16.15;;;5.40;80.20;;;;;;4953647;28;20044;-76
2021/12/12 03:17:56;;;;;;;32.50;16.65;;;5.40;80.30;;;;;;4938851;29;20047;-76
2021/12/12 03:20:31;;;;;;;32.92;15.95;;;5.40;80.30;;;;;;4941111;29;20055;-76
2021/12/12 03:23:06;;;;;;;29.75;15.30;;;5.40;80.30;;;;;;4960795;28;20035;-76
2021/12/12 03:25:35;;;;;;;32.22;16.27;;;5.40;80.40;;;;;;4942131;29;20039;-76
2021/12/12 03:28:01;;;;;;;26.77;16.08;;;5.40;80.40;;;;;;4942034;29;20044;-77
2021/12/12 03:30:28;;;;;;;28.67;15.52;;;5.40;80.30;;;;;;4945787;28;20050;-76
2021/12/12 03:32:54;;;;;;;31.70;16.30;;;5.40;80.40;;;;;;4949285;29;20496;-76
2021/12/12 03:35:20;;;;;;;28.85;15.60;;;5.40;80.40;;;;;;4949623;29;20046;-75
2021/12/12 03:37:46;;;;;;;22.27;15.07;;;5.40;80.40;;;;;;4940065;29;20036;-77
2021/12/12 03:40:18;;;;;;;29.27;14.70;;;5.40;80.50;;;;;;4945304;29;20051;-76
2021/12/12 03:42:47;;;;;;;25.02;13.75;;;5.40;80.50;;;;;;4948857;29;20054;-76
2021/12/12 03:45:13;;;;;;;22.65;14.57;;;5.40;80.50;;;;;;4952310;29;20083;-76
2021/12/12 03:47:45;;;;;;;26.88;14.73;;;5.50;80.60;;;;;;4944380;29;20047;-76
2021/12/12 03:50:16;;;;;;;26.77;14.60;;;5.50;80.70;;;;;;4952288;29;21179;-76
2021/12/12 03:52:42;;;;;;;28.63;13.57;;;5.50;80.70;;;;;;4953311;29;20054;-76
2021/12/12 03:55:09;;;;;;;22.17;13.43;;;5.50;80.70;;;;;;4954126;29;20039;-76
2021/12/12 03:57:35;;;;;;;26.48;14.07;;;5.50;80.70;;;;;;4942098;29;20054;-76
2021/12/12 04:00:01;;;;;;;21.13;12.73;;;5.50;80.70;;;;;;4954215;29;20380;-76
2021/12/12 04:02:28;;;;;;;20.70;12.95;;;5.50;80.70;;;;;;4942383;29;20047;-76
2021/12/12 04:04:54;;;;;;;23.23;13.88;;;5.50;80.80;;;;;;4949557;29;20435;-76
2021/12/12 04:07:26;;;;;;;19.65;12.13;;;5.50;80.70;;;;;;4950843;29;20058;-76
2021/12/12 04:09:52;;;;;;;17.10;11.18;;;5.50;80.80;;;;;;4944477;29;20075;-77
2021/12/12 04:12:19;;;;;;;21.85;13.63;;;5.50;80.80;;;;;;4956667;29;20118;-76
2021/12/12 04:14:46;;;;;;;17.40;11.98;;;5.50;80.80;;;;;;4951942;29;20039;-77
2021/12/12 04:17:16;;;;;;;17.77;12.10;;;5.50;80.80;;;;;;4940987;29;20039;-77
2021/12/12 04:19:44;;;;;;;19.60;11.50;;;5.60;80.90;;;;;;4946644;29;20097;-77
2021/12/12 04:22:10;;;;;;;16.90;12.05;;;5.50;80.90;;;;;;4938502;29;20047;-76
2021/12/12 04:24:40;;;;;;;14.95;11.45;;;5.60;80.90;;;;;;4942787;29;20432;-76
2021/12/12 04:27:07;;;;;;;18.73;12.15;;;5.60;81.00;;;;;;4959545;28;20087;-77
2021/12/12 04:29:37;;;;;;;15.10;10.65;;;5.60;81.00;;;;;;4944045;29;20501;-76
2021/12/12 04:32:10;;;;;;;15.57;11.27;;;5.60;81.10;;;;;;4941765;29;20402;-76
2021/12/12 04:34:39;;;;;;;17.35;11.52;;;5.60;81.10;;;;;;4954848;29;20051;-76
2021/12/12 04:37:06;;;;;;;16.85;10.90;;;5.60;81.10;;;;;;4943530;29;20388;-77
2021/12/12 04:39:37;;;;;;;15.50;10.48;;;5.60;81.10;;;;;;4949844;29;20050;-77
2021/12/12 04:42:09;;;;;;;19.73;10.32;;;5.70;81.20;;;;;;4952796;28;20051;-77
2021/12/12 04:44:38;;;;;;;16.52;10.50;;;5.70;81.20;;;;;;4939467;29;20058;-76
2021/12/12 04:50:33;;;;;;;16.38;9.95;;;5.70;81.40;;;;;;4939018;29;20130;-76
2021/12/12 04:53:11;;;;;;;12.23;9.52;;;5.70;81.40;;;;;;4938709;29;20533;-77
2021/12/12 04:56:03;;;;;;;15.23;10.50;;;5.70;81.40;;;;;;4948750;29;20070;-76
2021/12/12 04:58:48;;;;;;;16.10;9.65;;;5.70;81.40;;;;;;4955807;29;20054;-77
2021/12/12 05:01:52;;;;;;;15.48;10.32;;;5.70;81.40;;;;;;4963162;28;20106;-76
2021/12/12 05:04:27;;;;;;;14.90;9.35;;;5.70;81.40;;;;;;4949730;29;20062;-76
2021/12/12 05:07:09;;;;;;;14.75;9.48;;;5.80;81.50;;;;;;4961166;28;20074;-77
2021/12/12 05:09:50;;;;;;;13.10;9.07;;;5.80;81.60;;;;;;4949970;29;20039;-76
2021/12/12 05:12:46;;;;;;;14.23;9.50;;;5.80;81.60;;;;;;4971705;28;20490;-75
2021/12/12 05:15:16;;;;;;;11.50;8.63;;;5.80;81.60;;;;;;4948728;29;20486;-76
2021/12/12 05:17:50;;;;;;;13.82;9.05;;;5.80;81.50;;;;;;4944795;29;20053;-76
2021/12/12 05:20:41;;;;;;;13.15;8.68;;;5.90;81.70;;;;;;4949213;29;20039;-76
2021/12/12 05:23:12;;;;;;;11.25;8.95;;;5.90;81.80;;;;;;4948198;29;20105;-76
2021/12/12 05:25:45;;;;;;;14.13;8.85;;;5.90;81.70;;;;;;4944104;29;20043;-76
2021/12/12 05:28:12;;;;;;;10.82;8.95;;;5.90;81.80;;;;;;4939240;29;20052;-76
2021/12/12 05:30:38;;;;;;;13.32;8.80;;;5.90;81.70;;;;;;4971147;28;20055;-76
2021/12/12 05:33:05;;;;;;;11.15;8.10;;;5.90;81.70;;;;;;4938872;29;20063;-76
2021/12/12 05:35:39;;;;;;;14.68;8.63;;;6.00;81.80;;;;;;4942050;29;20087;-76
2021/12/12 05:38:06;;;;;;;9.93;8.25;;;6.00;81.90;;;;;;4940768;29;20385;-76
2021/12/12 05:40:35;;;;;;;12.02;8.48;;;6.00;81.90;;;;;;4939858;29;20043;-76
2021/12/12 05:43:03;;;;;;;14.02;8.73;;;6.00;81.90;;;;;;4943174;29;20059;-76
2021/12/12 05:45:31;;;;;;;11.38;8.20;;;6.00;81.90;;;;;;4950757;29;20047;-76
2021/12/12 05:47:57;;;;;;;11.50;8.93;;;6.00;81.90;;;;;;4948703;28;20054;-76
2021/12/12 05:50:26;;;;;;;11.77;8.90;;;6.00;81.90;;;;;;4949325;29;20130;-76
2021/12/12 05:52:54;;;;;;;13.38;10.20;;;6.10;82.00;;;;;;4953983;29;20365;-76
2021/12/12 05:55:22;;;;;;;12.40;9.48;;;6.10;82.00;;;;;;4947725;28;20048;-76
2021/12/12 05:57:56;;;;;;;12.80;9.10;;;6.10;82.00;;;;;;4943967;29;20055;-76
2021/12/12 06:00:33;;;;;;;14.73;9.38;;;6.10;82.10;;;;;;4948404;29;20051;-76
2021/12/12 06:03:00;;;;;;;10.95;8.90;;;6.10;82.10;;;;;;4937814;29;20142;-77
2021/12/12 06:05:27;;;;;;;14.27;10.20;;;6.20;82.10;;;;;;4943237;29;20039;-77
2021/12/12 06:07:57;;;;;;;11.80;9.63;;;6.20;82.10;;;;;;4944111;29;20542;-76
2021/12/12 06:10:24;;;;;;;12.07;10.20;;;6.20;82.10;;;;;;4941471;29;20048;-76
2021/12/12 06:12:51;;;;;;;12.20;10.35;;;6.20;82.10;;;;;;4941267;29;20072;-76
2021/12/12 06:15:19;;;;;;;13.40;11.15;;;6.20;82.10;;;;;;4943973;29;20051;-76
2021/12/12 06:17:47;;;;;;;14.93;9.73;;;6.20;82.10;;;;;;4946005;29;20447;-76
2021/12/12 06:20:14;;;;;;;14.27;11.48;;;6.20;82.20;;;;;;4944802;29;20122;-76
2021/12/12 06:22:40;;;;;;;13.13;9.98;;;6.20;82.10;;;;;;4943397;29;20052;-76
2021/12/12 06:25:08;;;;;;;14.90;11.07;;;6.30;82.20;;;;;;4943638;29;20049;-76
2021/12/12 06:27:35;;;;;;;16.55;11.63;;;6.30;82.20;;;;;;4944019;29;20051;-76
2021/12/12 06:30:05;;;;;;;16.25;11.43;;;6.30;82.20;;;;;;4943170;29;20049;-76
2021/12/12 06:32:31;;;;;;;16.15;12.80;;;6.30;82.30;;;;;;4938105;29;20043;-76
2021/12/12 06:34:58;;;;;;;13.88;10.95;;;6.30;82.20;;;;;;4950438;29;20043;-76
2021/12/12 06:37:25;;;;;;;13.48;11.15;;;6.30;82.30;;;;;;4944968;29;20410;-76
2021/12/12 06:39:53;;;;;;;15.07;11.18;;;6.30;82.30;;;;;;4949398;29;20414;-76
2021/12/12 06:42:19;;;;;;;13.05;10.80;;;6.40;82.40;;;;;;4944064;29;20047;-76
2021/12/12 06:44:45;;;;;;;16.88;11.60;;;6.40;82.30;;;;;;4967292;29;20083;-76
2021/12/12 06:47:15;;;;;;;13.93;11.07;;;6.40;82.30;;;;;;4955950;29;20051;-76
2021/12/12 06:49:42;;;;;;;13.52;11.38;;;6.40;82.30;;;;;;4954802;29;20047;-77
2021/12/12 06:52:10;;;;;;;14.90;11.10;;;6.40;82.30;;;;;;4937449;29;20047;-77
2021/12/12 06:54:37;;;;;;;16.42;11.48;;;6.40;82.40;;;;;;4936802;29;20137;-76
2021/12/12 06:57:09;;;;;;;11.52;9.80;;;6.40;82.40;;;;;;4946888;29;20055;-76
2021/12/12 06:59:38;;;;;;;13.27;10.82;;;6.40;82.40;;;;;;4949419;29;20048;-76
2021/12/12 07:02:06;;;;;;;14.52;10.38;;;6.40;82.40;;;;;;4939992;29;20484;-76
2021/12/12 07:04:33;;;;;;;14.60;10.80;;;6.40;82.40;;;;;;4936840;28;20054;-77
2021/12/12 07:07:01;;;;;;;13.32;10.60;;;6.50;82.40;;;;;;4951703;29;20051;-76
2021/12/12 07:09:30;;;;;;;13.80;10.70;;;6.50;82.40;;;;;;4943213;29;20055;-76
2021/12/12 07:12:03;;;;;;;13.68;11.35;;;6.40;82.40;;;;;;4942618;29;20083;-76
2021/12/12 07:14:30;;;;;;;12.93;11.10;;;6.50;82.40;;;;;;4938100;29;20372;-77
2021/12/12 07:16:56;;;;;;;15.15;11.63;;;6.50;82.40;;;;;;4937848;29;20054;-77
2021/12/12 07:19:22;;;;;;;13.98;11.18;;;6.50;82.40;;;;;;4950077;29;20115;-77
2021/12/12 07:21:49;;;;;;;16.23;12.32;;;6.50;82.40;;;;;;4944222;29;20134;-77
2021/12/12 07:24:17;;;;;;;15.85;11.80;;;6.50;82.50;;;;;;4947822;29;20054;-77
2021/12/12 07:26:43;;;;;;;15.23;12.18;;;6.50;82.50;;;;;;4952674;29;20055;-77
2021/12/12 07:29:10;;;;;;;16.42;12.20;;;6.50;82.50;;;;;;4951613;29;20042;-77
2021/12/12 07:31:38;;;;;;;14.32;11.77;;;6.60;82.60;;;;;;4940131;29;20039;-76
2021/12/12 07:34:07;;;;;;;16.83;13.18;;;6.60;82.60;;;;;;4961760;28;20055;-77
2021/12/12 07:36:38;;;;;;;18.63;13.45;;;6.60;82.70;;;;;;4938930;29;20058;-76
2021/12/12 07:39:10;;;;;;;17.25;12.25;;;6.60;82.70;;;;;;4939002;29;20133;-77
2021/12/12 07:41:37;;;;;;;15.80;13.02;;;6.60;82.70;;;;;;4944576;29;20091;-76
2021/12/12 07:44:06;;;;;;;20.95;14.93;;;6.60;82.60;;;;;;4943204;29;20055;-77
2021/12/12 07:46:33;;;;;;;20.95;14.55;;;6.60;82.60;;;;;;4935705;29;20043;-76
2021/12/12 07:48:59;;;;;;;22.40;15.52;;;6.60;82.70;;;;;;4949266;29;20126;-76
2021/12/12 07:51:26;;;;;;;19.30;14.73;;;6.60;83.10;;;;;;4949677;29;20131;-76
2021/12/12 07:53:57;;;;;;;18.48;14.10;;;6.70;82.70;;;;;;4945806;29;20059;-77
2021/12/12 07:56:26;;;;;;;24.73;16.85;;;6.70;82.80;;;;;;4936620;29;20488;-77
2021/12/12 07:58:52;;;;;;;18.65;14.10;;;6.70;82.80;;;;;;4940594;29;20059;-77
2021/12/12 08:01:18;;;;;;;18.63;14.23;;;6.70;82.80;;;;;;4937873;29;20043;-77
2021/12/12 08:03:45;;;;;;;20.42;14.63;;;6.70;82.80;;;;;;4939861;29;20039;-77
2021/12/12 08:06:15;;;;;;;22.45;15.43;;;6.70;82.80;;;;;;4942990;28;20064;-76
2021/12/12 08:08:42;;;;;;;19.50;14.23;;;6.70;82.80;;;;;;4942593;29;20455;-77
2021/12/12 08:11:09;;;;;;;19.88;14.80;;;6.70;82.90;;;;;;4941714;29;20072;-77
2021/12/12 08:13:35;;;;;;;20.10;15.30;;;6.70;82.90;;;;;;4940306;29;20130;-76
2021/12/12 08:16:05;;;;;;;18.95;14.77;;;6.80;82.90;;;;;;4943132;29;20043;-77
2021/12/12 08:18:32;;;;;;;20.73;15.00;;;6.80;83.00;;;;;;4956210;29;20049;-76
2021/12/12 08:21:00;;;;;;;18.65;14.35;;;6.80;83.00;;;;;;4942638;29;20035;-77
2021/12/12 08:23:26;;;;;;;18.65;14.10;;;6.80;83.00;;;;;;4952392;29;20055;-76
2021/12/12 08:25:54;;;;;;;18.42;14.93;;;6.80;83.00;;;;;;4956639;28;20147;-76
2021/12/12 08:28:20;;;;;;;23.13;15.90;;;6.90;83.10;;;;;;4958988;28;20134;-76
2021/12/12 08:30:47;;;;;;;23.70;15.50;;;6.90;83.10;;;;;;4964294;28;20054;-77
2021/12/12 08:33:14;;;;;;;23.98;15.63;;;6.90;83.10;;;;;;4947654;29;20487;-76
2021/12/12 08:35:40;;;;;;;24.67;16.23;;;6.90;83.20;;;;;;4944714;29;20043;-76
2021/12/12 08:38:08;;;;;;;22.52;15.82;;;6.90;83.20;;;;;;4956536;29;20073;-76
2021/12/12 08:40:39;;;;;;;19.48;14.68;;;6.90;83.20;;;;;;4949545;29;20071;-76
2021/12/12 08:43:12;;;;;;;25.38;16.35;;;7.00;83.20;;;;;;4943257;29;20050;-75
2021/12/12 08:45:41;;;;;;;24.38;16.60;;;7.00;83.20;;;;;;4947802;29;20392;-76
2021/12/12 08:48:07;;;;;;;21.42;16.25;;;7.00;83.20;;;;;;4948234;29;20039;-76
2021/12/12 08:50:36;;;;;;;27.38;18.10;;;7.00;83.20;;;;;;4949988;29;20054;-76
2021/12/12 08:53:04;;;;;;;25.80;17.98;;;7.00;83.20;;;;;;4942324;29;20043;-76
2021/12/12 08:55:36;;;;;;;28.02;18.20;;;7.00;83.20;;;;;;4958492;28;20044;-76
2021/12/12 08:58:14;;;;;;;26.33;18.00;;;7.00;83.30;;;;;;4948704;29;20039;-76
2021/12/12 09:00:48;;;;;;;27.70;18.25;;;7.00;83.30;;;;;;4953481;29;20051;-77
2021/12/12 09:03:24;;;;;;;27.13;18.98;;;7.10;83.40;;;;;;4942504;29;20054;-76
2021/12/12 09:05:50;;;;;;;34.70;21.08;;;7.10;83.40;;;;;;4960786;28;20048;-76
2021/12/12 09:08:36;;;;;;;26.77;17.95;;;7.10;83.40;;;;;;4945752;29;20058;-76
2021/12/12 09:11:11;;;;;;;32.70;20.00;;;7.10;83.50;;;;;;4941657;29;20055;-76
2021/12/12 09:13:49;;;;;;;35.97;20.48;;;7.10;83.50;;;;;;4953711;28;20064;-77
2021/12/12 09:16:34;;;;;;;33.53;19.33;;;7.10;83.60;;;;;;4956356;29;20390;-76
2021/12/12 09:19:06;;;;;;;30.73;19.60;;;7.20;83.70;;;;;;4952528;29;20061;-76
2021/12/12 09:21:49;;;;;;;30.08;19.88;;;7.20;83.60;;;;;;4971688;28;20046;-76
2021/12/12 09:24:30;;;;;;;30.17;18.73;;;7.20;83.70;;;;;;4954271;28;20058;-77
2021/12/12 09:27:00;;;;;;;28.02;19.13;;;7.30;83.80;;;;;;4937319;29;20403;-76
2021/12/12 09:29:35;;;;;;;29.17;18.48;;;7.40;83.70;;;;;;4940861;29;20054;-75
2021/12/12 09:32:08;;;;;;;33.40;21.08;;;7.30;83.70;;;;;;4953281;29;20039;-75
2021/12/12 09:34:57;;;;;;;35.60;21.00;;;7.30;83.70;;;;;;4953345;29;20439;-75
2021/12/12 09:37:33;;;;;;;34.50;20.23;;;7.40;83.90;;;;;;4937972;29;20514;-75
2021/12/12 09:40:21;;;;;;;34.10;19.73;;;7.30;83.90;;;;;;4945878;29;20122;-77
2021/12/12 09:43:31;;;;;;;30.55;20.02;;;7.40;83.90;;;;;;4956932;29;20055;-76
2021/12/12 09:46:07;;;;;;;30.33;19.40;;;7.40;84.00;;;;;;4943523;29;20051;-77
2021/12/12 09:52:12;;;;;;;32.60;19.33;;;7.50;84.10;;;;;;4967430;28;20098;-75
2021/12/12 09:54:37;;;;;;;34.22;19.27;;;7.50;84.10;;;;;;4945126;29;20051;-76
2021/12/12 09:57:26;;;;;;;33.50;19.50;;;7.50;83.90;;;;;;4953123;28;20506;-75
2021/12/12 10:00:07;;;;;;;31.10;19.75;;;7.50;84.10;;;;;;4946919;29;20491;-75
2021/12/12 10:02:33;;;;;;;32.72;18.65;;;7.60;84.20;;;;;;4951300;29;20062;-76
2021/12/12 10:05:08;;;;;;;27.08;18.25;;;7.60;84.10;;;;;;4954687;29;20051;-76
2021/12/12 10:08:10;;;;;;;26.73;17.90;;;7.60;84.10;;;;;;4937514;29;20059;-76
2021/12/12 10:11:07;;;;;;;30.00;19.02;;;7.60;84.20;;;;;;4948331;29;20042;-76
2021/12/12 10:13:44;;;;;;;33.67;19.67;;;7.70;84.40;;;;;;4939435;29;20510;-76
2021/12/12 10:16:23;;;;;;;30.30;19.67;;;7.70;84.30;;;;;;4945350;29;20051;-76
2021/12/12 10:19:00;;;;;;;30.05;18.67;;;7.70;84.30;;;;;;4966153;28;20060;-76
2021/12/12 10:21:26;;;;;;;31.33;19.05;;;7.70;84.30;;;;;;4962146;28;20185;-76
2021/12/12 10:24:01;;;;;;;33.17;18.70;;;7.70;84.20;;;;;;4959269;28;20081;-76
2021/12/12 10:26:38;;;;;;;36.25;19.33;;;7.80;84.30;;;;;;4948278;29;20073;-76
2021/12/12 10:29:17;;;;;;;28.45;18.33;;;7.80;84.50;;;;;;4950436;29;20060;-75
2021/12/12 10:32:06;;;;;;;26.88;17.70;;;7.80;84.50;;;;;;4942683;29;20086;-76
2021/12/12 10:34:46;;;;;;;40.13;20.20;;;7.80;84.60;;;;;;4937272;29;20082;-76
2021/12/12 10:37:31;;;;;;;32.33;19.33;;;7.90;84.60;;;;;;4953197;29;20483;-76
2021/12/12 10:40:15;;;;;;;31.02;18.27;;;7.90;84.60;;;;;;4941539;29;20058;-76
2021/12/12 10:42:48;;;;;;;27.92;17.42;;;7.90;84.70;;;;;;4939274;29;20047;-76
2021/12/12 10:45:26;;;;;;;28.48;18.25;;;7.90;84.60;;;;;;4931395;29;20143;-76
2021/12/12 10:48:00;;;;;;;34.00;19.17;;;8.00;84.70;;;;;;4943906;29;20075;-76
2021/12/12 10:50:29;;;;;;;28.58;18.55;;;8.00;84.80;;;;;;4945610;29;20086;-81
2021/12/12 10:53:27;;;;;;;26.63;17.42;;;8.10;84.80;;;;;;4941189;29;20047;-76
2021/12/12 10:56:03;;;;;;;31.02;19.00;;;8.10;85.00;;;;;;4945925;29;20043;-76
2021/12/12 10:58:38;;;;;;;38.67;20.30;;;8.10;84.90;;;;;;4945453;29;20067;-76
2021/12/12 11:01:16;;;;;;;32.05;19.48;;;8.10;84.90;;;;;;4947769;29;20047;-77
2021/12/12 11:03:49;;;;;;;31.42;17.30;;;8.10;84.90;;;;;;4949066;29;20082;-76
2021/12/12 11:06:28;;;;;;;27.63;18.00;;;8.10;84.90;;;;;;4938297;29;20558;-76
2021/12/12 11:08:59;;;;;;;27.55;17.65;;;8.20;85.00;;;;;;4950363;29;20082;-76
2021/12/12 11:11:48;;;;;;;38.22;19.92;;;8.20;84.90;;;;;;4939162;29;20513;-76
2021/12/12 11:14:24;;;;;;;30.20;18.50;;;8.20;85.00;;;;;;4947010;28;20501;-76
2021/12/12 11:16:54;;;;;;;31.23;17.95;;;8.20;85.00;;;;;;4954454;29;20047;-76
2021/12/12 11:19:30;;;;;;;32.63;18.73;;;8.20;85.00;;;;;;4946131;29;20134;-76
2021/12/12 11:22:02;;;;;;;35.00;19.48;;;8.20;85.00;;;;;;4946781;29;20050;-76
2021/12/12 11:24:35;;;;;;;33.22;19.48;;;8.30;85.00;;;;;;4950286;29;20176;-76
2021/12/12 11:27:29;;;;;;;30.23;18.70;;;8.30;85.10;;;;;;4940991;29;20079;-76
2021/12/12 11:30:05;;;;;;;29.55;17.27;;;8.30;85.10;;;;;;4941506;29;20059;-76
2021/12/12 11:32:37;;;;;;;31.48;18.17;;;8.40;85.10;;;;;;4943405;29;20047;-76
2021/12/12 11:35:06;;;;;;;28.30;17.98;;;8.40;85.10;;;;;;4956577;28;20043;-76
2021/12/12 11:37:54;;;;;;;33.65;18.88;;;8.40;85.10;;;;;;4938462;29;20040;-76
2021/12/12 11:40:46;;;;;;;32.35;18.08;;;8.40;85.20;;;;;;4947607;29;20134;-75
2021/12/12 11:43:33;;;;;;;29.60;16.92;;;8.40;85.20;;;;;;4940892;28;20055;-75
2021/12/12 11:46:19;;;;;;;30.17;17.38;;;8.50;85.30;;;;;;4941096;29;20543;-75
2021/12/12 11:49:00;;;;;;;27.60;15.70;;;8.50;85.30;;;;;;4938331;29;20058;-74
2021/12/12 11:51:36;;;;;;;27.60;17.48;;;8.50;85.30;;;;;;4937718;29;20663;-74
2021/12/12 11:54:39;;;;;;;28.55;17.13;;;8.50;85.20;;;;;;4940584;29;20055;-75
2021/12/12 11:57:18;;;;;;;27.75;17.20;;;8.60;85.40;;;;;;4944897;29;20051;-74
2021/12/12 12:00:09;;;;;;;25.35;16.33;;;8.50;85.40;;;;;;4940375;29;20046;-76
2021/12/12 12:02:52;;;;;;;27.10;16.58;;;8.60;85.50;;;;;;4943821;29;20487;-75
2021/12/12 12:05:41;;;;;;;21.50;14.43;;;8.60;85.50;;;;;;4940861;29;20138;-74
2021/12/12 12:08:21;;;;;;;26.92;15.40;;;8.70;85.50;;;;;;4961389;28;20119;-75
2021/12/12 12:10:53;;;;;;;23.13;14.15;;;8.70;85.50;;;;;;4945510;29;20051;-75
2021/12/12 12:13:38;;;;;;;26.70;15.75;;;8.70;85.50;;;;;;4951454;29;20052;-76
2021/12/12 12:16:48;;;;;;;21.80;13.98;;;8.70;85.60;;;;;;4943300;29;20042;-76
2021/12/12 12:19:51;;;;;;;23.42;13.68;;;8.80;85.80;;;;;;4896070;29;20052;-76
2021/12/12 12:22:44;;;;;;;32.15;17.23;;;8.80;85.80;;;;;;4883378;29;20068;-76
2021/12/12 12:25:21;;;;;;;27.10;15.23;;;8.90;85.90;;;;;;4897564;29;20056;-76
2021/12/12 12:28:05;;;;;;;23.05;13.88;;;8.90;85.80;;;;;;4899502;29;20520;-76
2021/12/12 12:30:30;;;;;;;19.45;12.60;;;8.90;85.90;;;;;;4899211;29;20065;-76
2021/12/12 12:33:08;;;;;;;24.67;13.95;;;8.90;85.80;;;;;;4880478;29;20101;-76
2021/12/12 12:35:52;;;;;;;26.90;14.65;;;9.00;86.00;;;;;;4875858;29;20053;-75
2021/12/12 12:38:56;;;;;;;23.50;13.57;;;9.00;86.00;;;;;;4898918;29;20048;-76
2021/12/12 12:41:36;;;;;;;18.85;12.80;;;9.00;86.00;;;;;;4898479;29;20092;-75
2021/12/12 12:44:38;;;;;;;26.13;15.23;;;9.10;86.10;;;;;;4883325;29;20067;-75
2021/12/12 12:47:45;;;;;;;23.48;14.50;;;9.10;86.10;;;;;;4889585;29;20524;-76
2021/12/12 12:50:36;;;;;;;22.52;13.82;;;9.10;86.10;;;;;;4883103;29;20053;-76
2021/12/12 12:53:18;;;;;;;21.33;13.48;;;9.10;86.10;;;;;;4882209;29;20408;-76
2021/12/12 12:56:21;;;;;;;24.90;14.63;;;9.10;86.10;;;;;;4898454;29;20151;-75
2021/12/12 12:59:08;;;;;;;21.75;13.65;;;9.20;86.20;;;;;;4949503;29;20059;-76
2021/12/12 13:01:48;;;;;;;24.48;16.02;;;9.20;86.10;;;;;;4954588;29;20044;-76
2021/12/12 13:04:30;;;;;;;24.45;15.23;;;9.20;86.10;;;;;;4952758;28;20049;-76
2021/12/12 13:07:14;;;;;;;24.23;14.93;;;9.20;86.20;;;;;;4937438;29;20059;-76
2021/12/12 13:09:45;;;;;;;25.10;14.27;;;9.30;86.30;;;;;;4949192;29;20051;-75
2021/12/12 13:12:23;;;;;;;18.65;12.82;;;9.30;86.20;;;;;;4953627;29;20540;-75
2021/12/12 13:15:07;;;;;;;20.27;13.05;;;9.30;86.20;;;;;;4972069;28;20446;-75
2021/12/12 13:17:43;;;;;;;19.80;13.10;;;9.30;86.10;;;;;;4937516;29;20134;-75
2021/12/12 13:20:32;;;;;;;18.85;12.30;;;9.30;86.20;;;;;;4954313;29;20079;-76
2021/12/12 13:23:31;;;;;;;24.73;13.88;;;9.40;86.20;;;;;;4938136;29;20051;-76
2021/12/12 13:26:05;;;;;;;17.65;12.90;;;9.40;86.20;;;;;;4945276;29;20051;-76
2021/12/12 13:28:52;;;;;;;18.60;12.60;;;9.40;86.20;;;;;;4942666;29;20058;-76
2021/12/12 13:31:27;;;;;;;28.75;14.98;;;9.40;86.20;;;;;;4957713;29;20089;-76
2021/12/12 13:34:18;;;;;;;20.73;13.07;;;9.40;86.10;;;;;;4957699;29;20050;-76